APC - Napa County

Pirep is a free, collaborative database of all public and private airports located within the United States. All pilots are welcome to contribute, edit, and improve any airport they have local knowledge about, no registration required.
Uploaded photos will be licensed under a CC BY-SA 4.0 license. Please only upload photos you have the rights to use.
Tags
Public
Food
METAR / TAF
Edit Tags
Camping
Lodging
Car Rental
Bicycles
Swimming
Golfing
Fishing
Hot Springs
Museum
Flying Clubs
Airpark
Upcoming Events
No upcoming events. Is anything happening here soon?
*
*
*

Where exactly on/near the airport is this event taking place?

Is there a webpage with more information for this event?

Who should be contacted for more information?

What is this event all about?

Repeat every
Description
Last updated: 2023-06-10 10:35:29 PDT
Transient Parking
Fuel Location
Landing & Tie-down Fees
Crew Car Availability
Flying Clubs
WiFi Access
Airport Statistics
Location: Napa, CA
Elevation: 35ft
Sectional: San Francisco
Activation date: Oct 1944
Fuel: 100LL, A (prices)
Runway 01L/19R: 5,930ft
Runway 06/24: 5,008ft
Runway 01R/19L: 2,510ft
Access: Open to the public
Current Weather — VFR
  • Weather data is strictly informational and not for flight planning purposes.
  • METAR
    2024-06-17 06:54:00 PDT
    Ceiling Wind Temperature Dewpoint Weather Visbility
    Sky clear Calm 51°F 48°F N/A 10SM
    Raw: KAPC 171354Z 00000KT 10SM CLR 11/09 A2989 RMK AO2 SLP114 T01110089
  • TAF
    2024-06-17 05:00:00 PDT – 2024-06-17 11:00:00 PDT
    Ceiling Wind Weather Visbility
    Sky clear Variable Smoke 6SM
    Clouds: @ ft
    Raw: KAPC 171120Z 1712/1812 VRB05KT 6SM FU SKC FM171800 31013G20KT P6SM SKC FM180300 VRB05KT P6SM SKC
  • TAF
    2024-06-17 11:00:00 PDT – 2024-06-17 20:00:00 PDT
    Ceiling Wind Weather Visbility
    Sky clear 310° @ 13kt, gusts 20kt N/A 6SM
    Clouds: @ ft
    Raw: KAPC 171120Z 1712/1812 VRB05KT 6SM FU SKC FM171800 31013G20KT P6SM SKC FM180300 VRB05KT P6SM SKC
  • TAF
    2024-06-17 20:00:00 PDT – 2024-06-18 05:00:00 PDT
    Ceiling Wind Weather Visbility
    Sky clear Variable N/A 6SM
    Clouds: @ ft
    Raw: KAPC 171120Z 1712/1812 VRB05KT 6SM FU SKC FM171800 31013G20KT P6SM SKC FM180300 VRB05KT P6SM SKC
Click/tap to add an annotation marker to the map
Airport Webcams
No webcams added yet.
Direct links to live image URLs will be displayed inline on this page. URLs to separate webpages will be linked to.
URL:
Direct links to live image URLs will be displayed inline on this page. URLs to separate webpages will be linked to.
URL:
Remarks
  • Asph twys strength 30,000 gwt single wheel.
  • Asph aprons strength 12500-30000 lbs gwt single wheel.
  • Unlgtd bridge 1 nm s, 167 ft agl
  • Due to airport proximity to wetlands birds on and invof the airport year around with highest concentration of activity of birds on the rys during rainy weather.
  • For cd when atct clsd ctc oakland artcc at 510-745-3380.
Comments
Leave a comment What was your experience like at this airport?